sensor_id;sensor_type;location;lat;lon;timestamp;P1;durP1;ratioP1;P2;durP2;ratioP2
57315;SDS011;43156;50.942;18.144;2023-05-07T00:11:54;2.90;;;1.50;;
57315;SDS011;43156;50.942;18.144;2023-05-07T00:14:24;3.30;;;2.00;;
57315;SDS011;43156;50.942;18.144;2023-05-07T00:16:56;2.50;;;1.70;;
57315;SDS011;43156;50.942;18.144;2023-05-07T00:19:25;2.90;;;1.80;;
57315;SDS011;43156;50.942;18.144;2023-05-07T00:21:58;2.50;;;1.90;;
57315;SDS011;43156;50.942;18.144;2023-05-07T00:24:24;2.50;;;1.90;;
57315;SDS011;43156;50.942;18.144;2023-05-07T00:26:56;1.80;;;1.50;;
57315;SDS011;43156;50.942;18.144;2023-05-07T00:29:32;2.20;;;1.80;;
57315;SDS011;43156;50.942;18.144;2023-05-07T00:32:04;3.10;;;1.80;;
57315;SDS011;43156;50.942;18.144;2023-05-07T00:34:35;3.30;;;1.70;;
57315;SDS011;43156;50.942;18.144;2023-05-07T00:37:10;2.10;;;1.70;;
57315;SDS011;43156;50.942;18.144;2023-05-07T00:39:40;1.80;;;1.70;;
57315;SDS011;43156;50.942;18.144;2023-05-07T00:42:23;2.00;;;1.40;;
57315;SDS011;43156;50.942;18.144;2023-05-07T00:44:53;2.50;;;1.90;;
57315;SDS011;43156;50.942;18.144;2023-05-07T00:47:24;2.70;;;2.20;;
57315;SDS011;43156;50.942;18.144;2023-05-07T00:49:55;2.50;;;2.30;;
57315;SDS011;43156;50.942;18.144;2023-05-07T00:52:28;3.40;;;1.70;;
57315;SDS011;43156;50.942;18.144;2023-05-07T00:54:57;2.20;;;1.80;;
57315;SDS011;43156;50.942;18.144;2023-05-07T00:57:32;2.70;;;1.90;;
57315;SDS011;43156;50.942;18.144;2023-05-07T01:00:06;2.90;;;1.90;;
57315;SDS011;43156;50.942;18.144;2023-05-07T01:02:38;2.10;;;1.60;;
57315;SDS011;43156;50.942;18.144;2023-05-07T01:05:16;3.80;;;2.00;;
57315;SDS011;43156;50.942;18.144;2023-05-07T01:07:44;3.60;;;2.10;;
57315;SDS011;43156;50.942;18.144;2023-05-07T01:10:12;2.40;;;2.10;;
57315;SDS011;43156;50.942;18.144;2023-05-07T01:12:51;3.30;;;2.80;;
57315;SDS011;43156;50.942;18.144;2023-05-07T01:15:22;3.50;;;2.30;;
57315;SDS011;43156;50.942;18.144;2023-05-07T01:17:54;3.80;;;2.10;;
57315;SDS011;43156;50.942;18.144;2023-05-07T01:20:23;3.30;;;1.90;;
57315;SDS011;43156;50.942;18.144;2023-05-07T01:22:53;2.90;;;2.20;;
57315;SDS011;43156;50.942;18.144;2023-05-07T01:25:30;3.60;;;2.10;;
57315;SDS011;43156;50.942;18.144;2023-05-07T01:28:01;2.90;;;1.60;;
57315;SDS011;43156;50.942;18.144;2023-05-07T01:30:33;2.10;;;1.80;;
57315;SDS011;43156;50.942;18.144;2023-05-07T01:33:04;2.70;;;2.00;;
57315;SDS011;43156;50.942;18.144;2023-05-07T01:35:43;2.90;;;1.90;;
57315;SDS011;43156;50.942;18.144;2023-05-07T01:38:17;2.60;;;1.70;;
57315;SDS011;43156;50.942;18.144;2023-05-07T01:40:47;2.20;;;1.70;;
57315;SDS011;43156;50.942;18.144;2023-05-07T01:43:16;2.00;;;1.70;;
57315;SDS011;43156;50.942;18.144;2023-05-07T01:45:44;2.90;;;1.50;;
57315;SDS011;43156;50.942;18.144;2023-05-07T01:48:16;1.80;;;1.60;;
57315;SDS011;43156;50.942;18.144;2023-05-07T01:50:43;2.60;;;1.80;;
57315;SDS011;43156;50.942;18.144;2023-05-07T01:53:20;2.10;;;1.70;;
57315;SDS011;43156;50.942;18.144;2023-05-07T01:55:53;3.70;;;1.90;;
57315;SDS011;43156;50.942;18.144;2023-05-07T01:58:21;2.60;;;1.70;;
57315;SDS011;43156;50.942;18.144;2023-05-07T02:00:58;2.90;;;2.10;;
57315;SDS011;43156;50.942;18.144;2023-05-07T02:03:26;3.10;;;1.80;;
57315;SDS011;43156;50.942;18.144;2023-05-07T02:05:57;3.20;;;1.90;;
57315;SDS011;43156;50.942;18.144;2023-05-07T02:08:30;2.40;;;1.90;;
57315;SDS011;43156;50.942;18.144;2023-05-07T02:10:58;2.60;;;1.80;;
57315;SDS011;43156;50.942;18.144;2023-05-07T02:13:32;3.10;;;1.80;;
57315;SDS011;43156;50.942;18.144;2023-05-07T02:16:01;2.90;;;1.90;;
57315;SDS011;43156;50.942;18.144;2023-05-07T02:18:31;2.60;;;2.20;;
57315;SDS011;43156;50.942;18.144;2023-05-07T02:21:04;3.00;;;2.00;;
57315;SDS011;43156;50.942;18.144;2023-05-07T02:23:31;2.80;;;2.10;;
57315;SDS011;43156;50.942;18.144;2023-05-07T02:26:00;3.30;;;2.70;;
57315;SDS011;43156;50.942;18.144;2023-05-07T02:28:41;4.30;;;2.20;;
57315;SDS011;43156;50.942;18.144;2023-05-07T02:31:08;2.70;;;2.00;;
57315;SDS011;43156;50.942;18.144;2023-05-07T02:33:40;2.70;;;2.20;;
57315;SDS011;43156;50.942;18.144;2023-05-07T02:36:12;3.70;;;2.30;;
57315;SDS011;43156;50.942;18.144;2023-05-07T02:38:40;2.10;;;1.80;;
57315;SDS011;43156;50.942;18.144;2023-05-07T02:41:17;2.40;;;1.80;;
57315;SDS011;43156;50.942;18.144;2023-05-07T02:44:01;2.60;;;2.10;;
57315;SDS011;43156;50.942;18.144;2023-05-07T02:46:27;1.90;;;1.80;;
57315;SDS011;43156;50.942;18.144;2023-05-07T02:49:09;2.50;;;1.70;;
57315;SDS011;43156;50.942;18.144;2023-05-07T02:51:35;4.00;;;2.10;;
57315;SDS011;43156;50.942;18.144;2023-05-07T02:54:18;3.10;;;2.40;;
57315;SDS011;43156;50.942;18.144;2023-05-07T02:56:54;2.50;;;2.10;;
57315;SDS011;43156;50.942;18.144;2023-05-07T02:59:23;2.00;;;1.80;;
57315;SDS011;43156;50.942;18.144;2023-05-07T03:01:54;2.40;;;1.90;;
57315;SDS011;43156;50.942;18.144;2023-05-07T03:04:28;1.80;;;1.50;;
57315;SDS011;43156;50.942;18.144;2023-05-07T03:07:04;1.70;;;1.50;;
57315;SDS011;43156;50.942;18.144;2023-05-07T03:09:31;2.40;;;1.60;;
57315;SDS011;43156;50.942;18.144;2023-05-07T03:12:01;2.40;;;1.30;;
57315;SDS011;43156;50.942;18.144;2023-05-07T03:14:36;2.30;;;1.30;;
57315;SDS011;43156;50.942;18.144;2023-05-07T03:17:04;1.80;;;1.20;;
57315;SDS011;43156;50.942;18.144;2023-05-07T03:19:38;2.20;;;1.40;;
57315;SDS011;43156;50.942;18.144;2023-05-07T03:22:05;1.70;;;1.30;;
57315;SDS011;43156;50.942;18.144;2023-05-07T03:24:40;1.40;;;1.20;;
57315;SDS011;43156;50.942;18.144;2023-05-07T03:27:16;4.20;;;1.30;;
57315;SDS011;43156;50.942;18.144;2023-05-07T03:29:46;1.80;;;1.40;;
57315;SDS011;43156;50.942;18.144;2023-05-07T03:32:22;2.10;;;1.40;;
57315;SDS011;43156;50.942;18.144;2023-05-07T03:35:04;2.30;;;1.50;;
57315;SDS011;43156;50.942;18.144;2023-05-07T03:37:37;2.20;;;1.30;;
57315;SDS011;43156;50.942;18.144;2023-05-07T03:40:07;1.10;;;1.00;;
57315;SDS011;43156;50.942;18.144;2023-05-07T03:42:37;1.90;;;1.30;;
57315;SDS011;43156;50.942;18.144;2023-05-07T03:45:08;1.60;;;1.10;;
57315;SDS011;43156;50.942;18.144;2023-05-07T03:47:42;1.10;;;1.00;;
57315;SDS011;43156;50.942;18.144;2023-05-07T03:50:17;2.00;;;1.00;;
57315;SDS011;43156;50.942;18.144;2023-05-07T03:52:48;1.30;;;0.80;;
57315;SDS011;43156;50.942;18.144;2023-05-07T03:55:23;1.30;;;0.80;;
57315;SDS011;43156;50.942;18.144;2023-05-07T03:57:51;1.80;;;1.20;;
57315;SDS011;43156;50.942;18.144;2023-05-07T04:00:25;1.20;;;1.00;;
57315;SDS011;43156;50.942;18.144;2023-05-07T04:02:59;1.10;;;0.90;;
57315;SDS011;43156;50.942;18.144;2023-05-07T04:05:32;1.50;;;1.10;;
57315;SDS011;43156;50.942;18.144;2023-05-07T04:08:00;1.90;;;1.00;;
57315;SDS011;43156;50.942;18.144;2023-05-07T04:10:30;1.80;;;1.00;;
57315;SDS011;43156;50.942;18.144;2023-05-07T04:13:02;1.20;;;1.00;;
57315;SDS011;43156;50.942;18.144;2023-05-07T04:15:36;1.90;;;1.10;;
57315;SDS011;43156;50.942;18.144;2023-05-07T04:18:05;1.60;;;1.10;;
57315;SDS011;43156;50.942;18.144;2023-05-07T04:20:34;1.50;;;1.30;;
57315;SDS011;43156;50.942;18.144;2023-05-07T04:23:08;1.70;;;1.40;;
57315;SDS011;43156;50.942;18.144;2023-05-07T04:25:43;3.60;;;1.90;;
57315;SDS011;43156;50.942;18.144;2023-05-07T04:28:16;2.20;;;1.70;;
57315;SDS011;43156;50.942;18.144;2023-05-07T04:30:42;3.60;;;1.90;;
57315;SDS011;43156;50.942;18.144;2023-05-07T04:33:10;1.80;;;1.30;;
57315;SDS011;43156;50.942;18.144;2023-05-07T04:35:39;1.90;;;1.70;;
57315;SDS011;43156;50.942;18.144;2023-05-07T04:38:09;2.10;;;1.80;;
57315;SDS011;43156;50.942;18.144;2023-05-07T04:40:39;2.20;;;1.40;;
57315;SDS011;43156;50.942;18.144;2023-05-07T04:43:06;1.80;;;1.60;;
57315;SDS011;43156;50.942;18.144;2023-05-07T04:45:38;2.40;;;1.70;;
57315;SDS011;43156;50.942;18.144;2023-05-07T04:48:09;2.00;;;1.50;;
57315;SDS011;43156;50.942;18.144;2023-05-07T04:50:49;2.30;;;1.50;;
57315;SDS011;43156;50.942;18.144;2023-05-07T04:53:16;1.90;;;1.80;;
57315;SDS011;43156;50.942;18.144;2023-05-07T04:55:54;2.80;;;1.60;;
57315;SDS011;43156;50.942;18.144;2023-05-07T04:58:24;2.00;;;1.40;;
57315;SDS011;43156;50.942;18.144;2023-05-07T05:00:53;2.30;;;2.00;;
57315;SDS011;43156;50.942;18.144;2023-05-07T05:03:23;1.90;;;1.70;;
57315;SDS011;43156;50.942;18.144;2023-05-07T05:06:06;2.50;;;1.60;;
57315;SDS011;43156;50.942;18.144;2023-05-07T05:08:36;2.00;;;1.50;;
57315;SDS011;43156;50.942;18.144;2023-05-07T05:11:02;1.70;;;1.50;;
57315;SDS011;43156;50.942;18.144;2023-05-07T05:13:35;2.30;;;1.40;;
57315;SDS011;43156;50.942;18.144;2023-05-07T05:16:11;1.60;;;1.40;;
57315;SDS011;43156;50.942;18.144;2023-05-07T05:18:41;3.90;;;1.70;;
57315;SDS011;43156;50.942;18.144;2023-05-07T05:21:12;2.70;;;2.00;;
57315;SDS011;43156;50.942;18.144;2023-05-07T05:23:39;1.70;;;1.60;;
57315;SDS011;43156;50.942;18.144;2023-05-07T05:26:09;1.60;;;1.30;;
57315;SDS011;43156;50.942;18.144;2023-05-07T05:28:50;1.60;;;1.20;;
57315;SDS011;43156;50.942;18.144;2023-05-07T05:31:17;2.00;;;1.40;;
57315;SDS011;43156;50.942;18.144;2023-05-07T05:33:48;2.70;;;1.50;;
57315;SDS011;43156;50.942;18.144;2023-05-07T05:36:18;1.60;;;1.20;;
57315;SDS011;43156;50.942;18.144;2023-05-07T05:38:51;1.90;;;1.10;;
57315;SDS011;43156;50.942;18.144;2023-05-07T05:41:19;2.40;;;1.70;;
57315;SDS011;43156;50.942;18.144;2023-05-07T05:43:50;1.80;;;1.70;;
57315;SDS011;43156;50.942;18.144;2023-05-07T05:46:23;2.60;;;1.60;;
57315;SDS011;43156;50.942;18.144;2023-05-07T05:48:50;2.00;;;1.70;;
57315;SDS011;43156;50.942;18.144;2023-05-07T05:51:29;3.80;;;1.70;;
57315;SDS011;43156;50.942;18.144;2023-05-07T05:54:04;2.20;;;1.50;;
57315;SDS011;43156;50.942;18.144;2023-05-07T06:42:07;1.90;;;1.70;;
57315;SDS011;43156;50.942;18.144;2023-05-07T06:44:38;2.30;;;1.90;;
57315;SDS011;43156;50.942;18.144;2023-05-07T06:47:11;2.30;;;2.10;;
57315;SDS011;43156;50.942;18.144;2023-05-07T06:49:43;2.40;;;1.90;;
57315;SDS011;43156;50.942;18.144;2023-05-07T06:52:10;3.40;;;2.50;;
57315;SDS011;43156;50.942;18.144;2023-05-07T06:54:43;2.80;;;2.10;;
57315;SDS011;43156;50.942;18.144;2023-05-07T06:57:13;2.50;;;2.10;;
57315;SDS011;43156;50.942;18.144;2023-05-07T06:59:43;3.10;;;2.60;;
57315;SDS011;43156;50.942;18.144;2023-05-07T07:02:13;2.90;;;2.20;;
57315;SDS011;43156;50.942;18.144;2023-05-07T07:04:40;3.30;;;2.10;;
57315;SDS011;43156;50.942;18.144;2023-05-07T07:07:11;2.50;;;2.30;;
57315;SDS011;43156;50.942;18.144;2023-05-07T07:09:38;2.20;;;2.00;;
57315;SDS011;43156;50.942;18.144;2023-05-07T07:12:09;2.80;;;1.90;;
57315;SDS011;43156;50.942;18.144;2023-05-07T07:14:40;3.80;;;3.30;;
57315;SDS011;43156;50.942;18.144;2023-05-07T07:17:06;2.60;;;2.10;;
57315;SDS011;43156;50.942;18.144;2023-05-07T07:19:40;2.30;;;2.10;;
57315;SDS011;43156;50.942;18.144;2023-05-07T07:22:07;3.30;;;2.30;;
57315;SDS011;43156;50.942;18.144;2023-05-07T07:24:40;2.10;;;1.90;;
57315;SDS011;43156;50.942;18.144;2023-05-07T07:27:08;2.50;;;2.00;;
57315;SDS011;43156;50.942;18.144;2023-05-07T07:29:44;2.50;;;2.20;;
57315;SDS011;43156;50.942;18.144;2023-05-07T07:32:13;3.40;;;2.70;;
57315;SDS011;43156;50.942;18.144;2023-05-07T07:34:46;2.30;;;2.10;;
57315;SDS011;43156;50.942;18.144;2023-05-07T07:37:20;2.60;;;2.40;;
57315;SDS011;43156;50.942;18.144;2023-05-07T07:39:53;4.20;;;3.30;;
57315;SDS011;43156;50.942;18.144;2023-05-07T07:42:22;2.70;;;2.50;;
57315;SDS011;43156;50.942;18.144;2023-05-07T07:44:51;3.10;;;2.80;;
57315;SDS011;43156;50.942;18.144;2023-05-07T07:47:22;3.60;;;3.30;;
57315;SDS011;43156;50.942;18.144;2023-05-07T07:49:54;3.00;;;2.70;;
57315;SDS011;43156;50.942;18.144;2023-05-07T07:52:22;3.30;;;2.90;;
57315;SDS011;43156;50.942;18.144;2023-05-07T07:54:53;2.80;;;2.50;;
57315;SDS011;43156;50.942;18.144;2023-05-07T07:57:20;3.10;;;2.20;;
57315;SDS011;43156;50.942;18.144;2023-05-07T07:59:51;2.40;;;2.20;;
57315;SDS011;43156;50.942;18.144;2023-05-07T08:02:21;2.70;;;2.40;;
57315;SDS011;43156;50.942;18.144;2023-05-07T08:04:53;3.00;;;2.20;;
57315;SDS011;43156;50.942;18.144;2023-05-07T08:07:19;3.20;;;2.80;;
57315;SDS011;43156;50.942;18.144;2023-05-07T08:09:50;3.30;;;3.00;;
57315;SDS011;43156;50.942;18.144;2023-05-07T08:14:46;3.30;;;3.00;;
57315;SDS011;43156;50.942;18.144;2023-05-07T08:17:17;3.80;;;3.50;;
57315;SDS011;43156;50.942;18.144;2023-05-07T08:19:49;3.20;;;2.90;;
57315;SDS011;43156;50.942;18.144;2023-05-07T08:22:15;3.40;;;3.10;;
57315;SDS011;43156;50.942;18.144;2023-05-07T08:24:47;3.50;;;3.20;;
57315;SDS011;43156;50.942;18.144;2023-05-07T08:27:14;3.40;;;3.10;;
57315;SDS011;43156;50.942;18.144;2023-05-07T08:29:41;3.70;;;3.30;;
57315;SDS011;43156;50.942;18.144;2023-05-07T08:32:08;4.60;;;3.90;;
57315;SDS011;43156;50.942;18.144;2023-05-07T08:34:37;3.30;;;3.00;;
57315;SDS011;43156;50.942;18.144;2023-05-07T08:37:06;3.80;;;3.40;;
57315;SDS011;43156;50.942;18.144;2023-05-07T08:39:33;4.70;;;3.90;;
57315;SDS011;43156;50.942;18.144;2023-05-07T08:42:04;3.30;;;3.00;;
57315;SDS011;43156;50.942;18.144;2023-05-07T08:44:34;3.50;;;3.10;;
57315;SDS011;43156;50.942;18.144;2023-05-07T08:47:06;3.50;;;3.20;;
57315;SDS011;43156;50.942;18.144;2023-05-07T08:49:41;3.60;;;3.30;;
57315;SDS011;43156;50.942;18.144;2023-05-07T08:52:08;3.10;;;2.80;;
57315;SDS011;43156;50.942;18.144;2023-05-07T08:54:34;3.40;;;2.80;;
57315;SDS011;43156;50.942;18.144;2023-05-07T08:57:05;3.30;;;3.00;;
57315;SDS011;43156;50.942;18.144;2023-05-07T08:59:41;3.20;;;2.60;;
57315;SDS011;43156;50.942;18.144;2023-05-07T09:02:09;3.10;;;2.80;;
57315;SDS011;43156;50.942;18.144;2023-05-07T09:07:07;3.60;;;2.80;;
57315;SDS011;43156;50.942;18.144;2023-05-07T09:09:34;2.70;;;2.30;;
57315;SDS011;43156;50.942;18.144;2023-05-07T09:12:04;2.60;;;2.40;;
57315;SDS011;43156;50.942;18.144;2023-05-07T09:14:36;2.70;;;2.40;;
57315;SDS011;43156;50.942;18.144;2023-05-07T09:17:02;3.00;;;2.80;;
57315;SDS011;43156;50.942;18.144;2023-05-07T09:19:37;3.10;;;2.70;;
57315;SDS011;43156;50.942;18.144;2023-05-07T09:22:07;3.00;;;2.70;;
57315;SDS011;43156;50.942;18.144;2023-05-07T09:24:40;3.40;;;3.10;;
57315;SDS011;43156;50.942;18.144;2023-05-07T09:27:06;2.90;;;2.70;;
57315;SDS011;43156;50.942;18.144;2023-05-07T09:29:39;3.10;;;2.60;;
57315;SDS011;43156;50.942;18.144;2023-05-07T09:32:14;2.70;;;2.30;;
57315;SDS011;43156;50.942;18.144;2023-05-07T09:34:44;3.30;;;2.20;;
57315;SDS011;43156;50.942;18.144;2023-05-07T09:37:13;3.60;;;2.60;;
57315;SDS011;43156;50.942;18.144;2023-05-07T09:39:49;2.80;;;2.30;;
57315;SDS011;43156;50.942;18.144;2023-05-07T09:42:25;2.20;;;2.00;;
57315;SDS011;43156;50.942;18.144;2023-05-07T09:44:54;3.70;;;2.10;;
57315;SDS011;43156;50.942;18.144;2023-05-07T09:47:25;4.20;;;2.40;;
57315;SDS011;43156;50.942;18.144;2023-05-07T09:50:00;2.60;;;2.20;;
57315;SDS011;43156;50.942;18.144;2023-05-07T09:52:38;2.20;;;2.00;;
57315;SDS011;43156;50.942;18.144;2023-05-07T09:55:14;2.20;;;1.90;;
57315;SDS011;43156;50.942;18.144;2023-05-07T10:00:12;2.00;;;1.80;;
57315;SDS011;43156;50.942;18.144;2023-05-07T10:02:39;2.10;;;1.90;;
57315;SDS011;43156;50.942;18.144;2023-05-07T10:05:14;3.10;;;2.30;;
57315;SDS011;43156;50.942;18.144;2023-05-07T10:07:42;3.30;;;2.60;;
57315;SDS011;43156;50.942;18.144;2023-05-07T10:12:39;1.90;;;1.60;;
57315;SDS011;43156;50.942;18.144;2023-05-07T10:15:10;2.30;;;1.90;;
57315;SDS011;43156;50.942;18.144;2023-05-07T10:17:38;2.40;;;2.20;;
57315;SDS011;43156;50.942;18.144;2023-05-07T10:20:05;2.60;;;2.30;;
57315;SDS011;43156;50.942;18.144;2023-05-07T10:22:34;2.10;;;1.90;;
57315;SDS011;43156;50.942;18.144;2023-05-07T10:25:09;2.40;;;2.10;;
57315;SDS011;43156;50.942;18.144;2023-05-07T10:27:55;2.00;;;1.80;;
57315;SDS011;43156;50.942;18.144;2023-05-07T10:33:01;2.40;;;1.70;;
57315;SDS011;43156;50.942;18.144;2023-05-07T10:35:32;2.90;;;1.90;;
57315;SDS011;43156;50.942;18.144;2023-05-07T10:38:06;2.10;;;1.90;;
57315;SDS011;43156;50.942;18.144;2023-05-07T10:40:34;2.60;;;2.40;;
57315;SDS011;43156;50.942;18.144;2023-05-07T10:43:02;3.20;;;2.90;;
57315;SDS011;43156;50.942;18.144;2023-05-07T10:45:35;5.00;;;4.40;;
57315;SDS011;43156;50.942;18.144;2023-05-07T10:48:13;3.50;;;2.20;;
57315;SDS011;43156;50.942;18.144;2023-05-07T10:50:44;3.10;;;2.80;;
57315;SDS011;43156;50.942;18.144;2023-05-07T10:55:43;3.90;;;3.00;;
57315;SDS011;43156;50.942;18.144;2023-05-07T11:00:55;3.00;;;2.70;;
57315;SDS011;43156;50.942;18.144;2023-05-07T11:03:26;3.90;;;3.20;;
57315;SDS011;43156;50.942;18.144;2023-05-07T11:06:12;3.60;;;2.80;;
57315;SDS011;43156;50.942;18.144;2023-05-07T11:11:36;4.30;;;3.30;;
57315;SDS011;43156;50.942;18.144;2023-05-07T11:14:34;3.40;;;2.90;;
57315;SDS011;43156;50.942;18.144;2023-05-07T11:17:09;5.00;;;4.10;;
57315;SDS011;43156;50.942;18.144;2023-05-07T11:19:48;6.00;;;4.40;;
57315;SDS011;43156;50.942;18.144;2023-05-07T12:14:47;5.20;;;4.50;;
57315;SDS011;43156;50.942;18.144;2023-05-07T12:17:16;4.80;;;4.40;;
57315;SDS011;43156;50.942;18.144;2023-05-07T12:19:55;5.80;;;4.00;;
57315;SDS011;43156;50.942;18.144;2023-05-07T12:22:21;4.50;;;4.10;;
57315;SDS011;43156;50.942;18.144;2023-05-07T12:24:57;5.20;;;3.80;;
57315;SDS011;43156;50.942;18.144;2023-05-07T12:27:27;4.80;;;4.40;;
57315;SDS011;43156;50.942;18.144;2023-05-07T12:30:02;5.30;;;4.00;;
57315;SDS011;43156;50.942;18.144;2023-05-07T12:32:31;4.40;;;3.80;;
57315;SDS011;43156;50.942;18.144;2023-05-07T12:35:02;4.10;;;3.70;;
57315;SDS011;43156;50.942;18.144;2023-05-07T12:37:29;3.70;;;3.40;;
57315;SDS011;43156;50.942;18.144;2023-05-07T12:40:03;4.50;;;3.70;;
57315;SDS011;43156;50.942;18.144;2023-05-07T12:42:38;5.60;;;4.40;;
57315;SDS011;43156;50.942;18.144;2023-05-07T12:45:12;4.40;;;3.40;;
57315;SDS011;43156;50.942;18.144;2023-05-07T12:47:43;3.80;;;3.40;;
57315;SDS011;43156;50.942;18.144;2023-05-07T12:50:13;4.00;;;3.40;;
57315;SDS011;43156;50.942;18.144;2023-05-07T12:52:45;4.40;;;4.00;;
57315;SDS011;43156;50.942;18.144;2023-05-07T12:55:19;6.30;;;3.80;;
57315;SDS011;43156;50.942;18.144;2023-05-07T12:57:50;4.60;;;4.10;;
57315;SDS011;43156;50.942;18.144;2023-05-07T13:03:05;4.40;;;3.90;;
57315;SDS011;43156;50.942;18.144;2023-05-07T13:05:34;4.90;;;3.90;;
57315;SDS011;43156;50.942;18.144;2023-05-07T13:08:00;3.70;;;3.40;;
57315;SDS011;43156;50.942;18.144;2023-05-07T13:10:31;3.80;;;3.50;;
57315;SDS011;43156;50.942;18.144;2023-05-07T13:12:59;4.00;;;3.50;;
57315;SDS011;43156;50.942;18.144;2023-05-07T13:15:32;4.30;;;3.80;;
57315;SDS011;43156;50.942;18.144;2023-05-07T13:18:03;4.50;;;4.00;;
57315;SDS011;43156;50.942;18.144;2023-05-07T13:20:32;4.70;;;3.90;;
57315;SDS011;43156;50.942;18.144;2023-05-07T13:22:59;4.10;;;3.70;;
57315;SDS011;43156;50.942;18.144;2023-05-07T13:25:27;3.70;;;3.40;;
57315;SDS011;43156;50.942;18.144;2023-05-07T13:28:00;4.20;;;3.30;;
57315;SDS011;43156;50.942;18.144;2023-05-07T13:30:29;5.00;;;3.80;;
57315;SDS011;43156;50.942;18.144;2023-05-07T13:33:03;12.60;;;7.20;;
57315;SDS011;43156;50.942;18.144;2023-05-07T13:37:58;4.70;;;3.60;;
57315;SDS011;43156;50.942;18.144;2023-05-07T13:40:31;29.90;;;20.40;;
57315;SDS011;43156;50.942;18.144;2023-05-07T13:43:01;7.60;;;6.80;;
57315;SDS011;43156;50.942;18.144;2023-05-07T13:45:29;5.60;;;4.20;;
57315;SDS011;43156;50.942;18.144;2023-05-07T13:48:02;5.60;;;4.80;;
57315;SDS011;43156;50.942;18.144;2023-05-07T13:50:31;5.40;;;4.90;;
57315;SDS011;43156;50.942;18.144;2023-05-07T13:52:59;6.40;;;5.50;;
57315;SDS011;43156;50.942;18.144;2023-05-07T13:55:25;6.20;;;5.50;;
57315;SDS011;43156;50.942;18.144;2023-05-07T13:57:58;5.10;;;4.60;;
57315;SDS011;43156;50.942;18.144;2023-05-07T14:02:59;5.80;;;4.60;;
57315;SDS011;43156;50.942;18.144;2023-05-07T14:05:30;5.90;;;5.00;;
57315;SDS011;43156;50.942;18.144;2023-05-07T14:08:03;4.80;;;4.40;;
57315;SDS011;43156;50.942;18.144;2023-05-07T14:10:38;5.10;;;4.60;;
57315;SDS011;43156;50.942;18.144;2023-05-07T14:13:09;3.70;;;3.30;;
57315;SDS011;43156;50.942;18.144;2023-05-07T14:15:38;4.80;;;4.30;;
57315;SDS011;43156;50.942;18.144;2023-05-07T14:18:15;5.00;;;4.50;;
57315;SDS011;43156;50.942;18.144;2023-05-07T14:20:42;5.20;;;4.70;;
57315;SDS011;43156;50.942;18.144;2023-05-07T14:23:24;5.70;;;4.30;;
57315;SDS011;43156;50.942;18.144;2023-05-07T14:25:52;4.10;;;3.80;;
57315;SDS011;43156;50.942;18.144;2023-05-07T14:28:23;6.50;;;5.60;;
57315;SDS011;43156;50.942;18.144;2023-05-07T14:31:00;7.50;;;5.80;;
57315;SDS011;43156;50.942;18.144;2023-05-07T14:33:27;7.80;;;7.00;;
57315;SDS011;43156;50.942;18.144;2023-05-07T14:35:57;10.60;;;9.10;;
57315;SDS011;43156;50.942;18.144;2023-05-07T14:38:29;6.20;;;4.80;;
57315;SDS011;43156;50.942;18.144;2023-05-07T14:40:59;8.00;;;6.40;;
57315;SDS011;43156;50.942;18.144;2023-05-07T14:43:30;6.30;;;5.60;;
57315;SDS011;43156;50.942;18.144;2023-05-07T14:46:00;37.40;;;27.50;;
57315;SDS011;43156;50.942;18.144;2023-05-07T14:48:29;4.60;;;4.00;;
57315;SDS011;43156;50.942;18.144;2023-05-07T14:50:55;6.80;;;5.70;;
57315;SDS011;43156;50.942;18.144;2023-05-07T14:53:25;5.10;;;4.50;;
57315;SDS011;43156;50.942;18.144;2023-05-07T14:55:54;7.40;;;6.70;;
57315;SDS011;43156;50.942;18.144;2023-05-07T14:58:28;5.20;;;4.60;;
57315;SDS011;43156;50.942;18.144;2023-05-07T15:00:59;10.50;;;9.60;;
57315;SDS011;43156;50.942;18.144;2023-05-07T15:03:31;5.50;;;4.80;;
57315;SDS011;43156;50.942;18.144;2023-05-07T15:05:58;5.80;;;4.90;;
57315;SDS011;43156;50.942;18.144;2023-05-07T15:08:27;5.60;;;5.10;;
57315;SDS011;43156;50.942;18.144;2023-05-07T15:10:56;5.50;;;4.30;;
57315;SDS011;43156;50.942;18.144;2023-05-07T15:13:27;8.30;;;6.50;;
57315;SDS011;43156;50.942;18.144;2023-05-07T15:15:55;6.30;;;4.50;;
57315;SDS011;43156;50.942;18.144;2023-05-07T15:18:23;5.00;;;4.60;;
57315;SDS011;43156;50.942;18.144;2023-05-07T15:20:55;7.90;;;5.20;;
57315;SDS011;43156;50.942;18.144;2023-05-07T15:23:23;3.90;;;3.30;;
57315;SDS011;43156;50.942;18.144;2023-05-07T15:25:53;5.40;;;4.70;;
57315;SDS011;43156;50.942;18.144;2023-05-07T15:28:22;5.10;;;4.30;;
57315;SDS011;43156;50.942;18.144;2023-05-07T15:30:50;4.20;;;3.80;;
57315;SDS011;43156;50.942;18.144;2023-05-07T15:33:20;4.60;;;4.20;;
57315;SDS011;43156;50.942;18.144;2023-05-07T15:35:51;4.80;;;4.20;;
57315;SDS011;43156;50.942;18.144;2023-05-07T15:38:20;4.50;;;4.10;;
57315;SDS011;43156;50.942;18.144;2023-05-07T15:40:46;5.80;;;4.70;;
57315;SDS011;43156;50.942;18.144;2023-05-07T15:43:12;4.40;;;4.00;;
57315;SDS011;43156;50.942;18.144;2023-05-07T15:45:41;5.30;;;4.70;;
57315;SDS011;43156;50.942;18.144;2023-05-07T15:48:10;6.10;;;5.50;;
57315;SDS011;43156;50.942;18.144;2023-05-07T15:50:41;11.60;;;8.10;;
57315;SDS011;43156;50.942;18.144;2023-05-07T15:53:15;5.60;;;4.10;;
57315;SDS011;43156;50.942;18.144;2023-05-07T15:55:41;4.50;;;4.00;;
57315;SDS011;43156;50.942;18.144;2023-05-07T15:58:13;5.80;;;5.10;;
57315;SDS011;43156;50.942;18.144;2023-05-07T16:00:44;4.00;;;3.30;;
57315;SDS011;43156;50.942;18.144;2023-05-07T16:03:17;4.40;;;3.90;;
57315;SDS011;43156;50.942;18.144;2023-05-07T16:05:49;4.90;;;4.10;;
57315;SDS011;43156;50.942;18.144;2023-05-07T16:08:27;4.70;;;4.10;;
57315;SDS011;43156;50.942;18.144;2023-05-07T16:10:57;4.60;;;4.00;;
57315;SDS011;43156;50.942;18.144;2023-05-07T16:13:28;8.80;;;6.60;;
57315;SDS011;43156;50.942;18.144;2023-05-07T16:16:06;6.20;;;5.10;;
57315;SDS011;43156;50.942;18.144;2023-05-07T16:18:38;6.20;;;4.10;;
57315;SDS011;43156;50.942;18.144;2023-05-07T16:21:11;4.10;;;3.70;;
57315;SDS011;43156;50.942;18.144;2023-05-07T16:23:38;5.20;;;4.30;;
57315;SDS011;43156;50.942;18.144;2023-05-07T16:26:13;5.00;;;4.20;;
57315;SDS011;43156;50.942;18.144;2023-05-07T16:31:14;5.30;;;3.50;;
57315;SDS011;43156;50.942;18.144;2023-05-07T16:33:45;4.00;;;3.50;;
57315;SDS011;43156;50.942;18.144;2023-05-07T16:36:21;4.70;;;4.10;;
57315;SDS011;43156;50.942;18.144;2023-05-07T16:38:47;5.70;;;4.20;;
57315;SDS011;43156;50.942;18.144;2023-05-07T16:41:15;4.70;;;3.80;;
57315;SDS011;43156;50.942;18.144;2023-05-07T16:43:48;4.60;;;3.80;;
57315;SDS011;43156;50.942;18.144;2023-05-07T16:46:15;4.50;;;4.10;;
57315;SDS011;43156;50.942;18.144;2023-05-07T16:48:45;7.50;;;5.00;;
57315;SDS011;43156;50.942;18.144;2023-05-07T16:51:15;10.70;;;7.30;;
57315;SDS011;43156;50.942;18.144;2023-05-07T16:53:49;76.40;;;30.10;;
57315;SDS011;43156;50.942;18.144;2023-05-07T16:56:29;72.20;;;34.20;;
57315;SDS011;43156;50.942;18.144;2023-05-07T16:58:59;57.90;;;32.60;;
57315;SDS011;43156;50.942;18.144;2023-05-07T17:01:31;93.70;;;53.60;;
57315;SDS011;43156;50.942;18.144;2023-05-07T17:04:01;47.20;;;29.30;;
57315;SDS011;43156;50.942;18.144;2023-05-07T17:06:32;22.50;;;16.10;;
57315;SDS011;43156;50.942;18.144;2023-05-07T17:09:03;34.80;;;23.90;;
57315;SDS011;43156;50.942;18.144;2023-05-07T17:11:34;34.10;;;23.70;;
57315;SDS011;43156;50.942;18.144;2023-05-07T17:14:06;20.30;;;16.80;;
57315;SDS011;43156;50.942;18.144;2023-05-07T17:16:34;15.90;;;13.40;;